Time;durP1;ratioP1;P1;durP2;ratioP2;P2;SDS_P1;SDS_P2;PMS_P1;PMS_P2;Temp;Humidity;BMP_temperature;BMP_pressure;BME280_temperature;BME280_humidity;BME280_pressure;Samples;Min_cycle;Max_cycle;Signal;HPM_P1;HPM_P2
2022/09/04 00:01:04;;;;;;;;;;;;;;;9.94;64.89;100476.34;4976788;28;19933;-77
2022/09/04 00:03:37;;;;;;;;;;;;;;;9.90;65.20;100484.09;4960004;28;19926;-77
2022/09/04 00:06:08;;;;;;;;;;;;;;;9.85;65.06;100489.22;4986108;28;20413;-76
2022/09/04 00:08:35;;;;;;;;;;;;;;;9.83;64.89;100483.13;4978743;28;19932;-77
2022/09/04 00:11:15;;;;;;;;;;;;;;;9.84;65.29;100484.84;4995676;28;19926;-76
2022/09/04 00:13:44;;;;;;;;;;;;;;;9.87;64.57;100490.09;4995819;28;19972;-77
2022/09/04 00:16:15;;;;;;;;;;;;;;;9.93;64.32;100484.13;4995735;28;20417;-78
2022/09/04 00:18:43;;;;;;;;;;;;;;;10.00;64.24;100484.25;4978502;28;19925;-78
2022/09/04 00:21:13;;;;;;;;;;;;;;;10.06;64.19;100478.22;4995549;28;19925;-77
2022/09/04 00:23:43;;;;;;;;;;;;;;;10.08;64.09;100473.06;4995723;28;19980;-77
2022/09/04 00:26:16;;;;;;;;;;;;;;;10.08;63.77;100478.28;4995040;28;20032;-78
2022/09/04 00:28:48;;;;;;;;;;;;;;;10.04;63.85;100480.84;4995534;28;20024;-77
2022/09/04 00:31:15;;;;;;;;;;;;;;;9.99;64.40;100477.25;4995108;28;20406;-77
2022/09/04 00:33:42;;;;;;;;;;;;;;;9.95;64.52;100483.28;4995146;28;19932;-78
2022/09/04 00:36:10;;;;;;;;;;;;;;;9.88;64.67;100486.66;4995881;28;19976;-77
2022/09/04 00:38:43;;;;;;;;;;;;;;;9.81;64.81;100480.47;4995500;28;19936;-77
2022/09/04 00:41:13;;;;;;;;;;;;;;;9.74;64.66;100493.38;4994769;28;20374;-77
2022/09/04 00:43:40;;;;;;;;;;;;;;;9.64;65.37;100482.78;4994901;28;19926;-77
2022/09/04 00:46:07;;;;;;;;;;;;;;;9.57;64.88;100483.56;4977682;28;20028;-77
2022/09/04 00:48:36;;;;;;;;;;;;;;;9.53;65.67;100481.75;4994870;28;19926;-76
2022/09/04 00:51:15;;;;;;;;;;;;;;;9.46;65.48;100479.84;4995312;28;19925;-77
2022/09/04 00:53:45;;;;;;;;;;;;;;;9.37;66.04;100485.78;4995118;28;19925;-77
2022/09/04 00:56:30;;;;;;;;;;;;;;;9.29;65.87;100487.41;4994772;28;19930;-77
2022/09/04 00:59:00;;;;;;;;;;;;;;;9.18;66.43;100483.69;4994661;28;20378;-77
2022/09/04 01:01:28;;;;;;;;;;;;;;;9.10;66.05;100494.00;4994917;28;20373;-77
2022/09/04 01:04:15;;;;;;;;;;;;;;;9.05;66.21;100486.91;4994399;28;19972;-76
2022/09/04 01:06:51;;;;;;;;;;;;;;;9.05;66.40;100487.78;4994142;28;19932;-77
2022/09/04 01:09:21;;;;;;;;;;;;;;;9.09;66.63;100486.13;4994517;28;20390;-78
2022/09/04 01:11:54;;;;;;;;;;;;;;;9.14;65.93;100490.59;4976645;28;19925;-78
2022/09/04 01:14:38;;;;;;;;;;;;;;;9.17;66.29;100488.03;4994293;28;19926;-76
2022/09/04 01:17:11;;;;;;;;;;;;;;;9.20;66.06;100492.41;4994501;28;20412;-76
2022/09/04 01:19:39;;;;;;;;;;;;;;;9.16;65.70;100493.22;4994633;28;19957;-79
2022/09/04 01:22:12;;;;;;;;;;;;;;;9.14;66.38;100494.91;4986556;28;19972;-78
2022/09/04 01:24:58;;;;;;;;;;;;;;;9.09;66.54;100504.38;4989067;28;19936;-77
2022/09/04 01:27:39;;;;;;;;;;;;;;;9.02;66.44;100498.16;4979233;28;19926;-76
2022/09/04 01:30:08;;;;;;;;;;;;;;;8.96;66.44;100504.13;4993961;28;19980;-76
2022/09/04 01:32:53;;;;;;;;;;;;;;;8.92;66.83;100497.09;4993797;28;20382;-77
2022/09/04 01:35:28;;;;;;;;;;;;;;;8.88;66.97;100497.88;4993871;28;20026;-77
2022/09/04 01:37:55;;;;;;;;;;;;;;;8.79;67.30;100497.69;4994010;28;19929;-77
2022/09/04 01:40:21;;;;;;;;;;;;;;;8.67;67.57;100497.44;4993637;28;19926;-79
2022/09/04 01:43:03;;;;;;;;;;;;;;;8.54;68.27;100489.38;4978766;28;19926;-78
2022/09/04 01:45:51;;;;;;;;;;;;;;;8.47;68.03;100486.59;4983846;28;19926;-77
2022/09/04 01:48:22;;;;;;;;;;;;;;;8.42;68.12;100496.03;4953702;28;19961;-77
2022/09/04 01:50:51;;;;;;;;;;;;;;;8.36;67.89;100486.31;4985048;28;19941;-76
2022/09/04 01:53:26;;;;;;;;;;;;;;;8.33;68.34;100494.06;4991962;28;19953;-76
2022/09/04 01:56:21;;;;;;;;;;;;;;;8.28;68.38;100491.38;4987018;28;19926;-76
2022/09/04 01:58:54;;;;;;;;;;;;;;;8.24;68.68;100491.25;4982024;28;19929;-76
2022/09/04 02:01:27;;;;;;;;;;;;;;;8.18;68.27;100486.78;4982420;28;19926;-76
2022/09/04 02:04:17;;;;;;;;;;;;;;;8.14;68.32;100485.84;4978092;28;20345;-78
2022/09/04 02:06:53;;;;;;;;;;;;;;;8.14;68.30;100482.38;4974909;28;19991;-76
2022/09/04 02:09:38;;;;;;;;;;;;;;;8.16;68.63;100478.94;4973703;28;20326;-77
2022/09/04 02:12:24;;;;;;;;;;;;;;;8.22;68.48;100483.41;4974605;28;19933;-78
2022/09/04 02:15:03;;;;;;;;;;;;;;;8.29;67.77;100480.09;4973218;28;19942;-76
2022/09/04 02:17:42;;;;;;;;;;;;;;;8.37;67.71;100477.69;4982561;28;19972;-79
2022/09/04 02:20:26;;;;;;;;;;;;;;;8.42;67.55;100476.09;4978167;28;19926;-78
2022/09/04 02:23:02;;;;;;;;;;;;;;;8.42;67.87;100472.59;4978507;28;19926;-78
2022/09/04 02:25:29;;;;;;;;;;;;;;;8.36;68.02;100482.00;4986159;28;20298;-79
2022/09/04 02:28:11;;;;;;;;;;;;;;;8.30;68.27;100481.88;4997642;28;19934;-80
2022/09/04 02:30:41;;;;;;;;;;;;;;;8.24;68.46;100481.75;4997181;28;19925;-77
2022/09/04 02:33:08;;;;;;;;;;;;;;;8.19;68.51;100475.53;4996913;28;20320;-77
2022/09/04 02:35:34;;;;;;;;;;;;;;;8.18;68.46;100477.25;4996863;28;19925;-78
2022/09/04 02:38:07;;;;;;;;;;;;;;;8.19;68.53;100472.94;4997074;28;20021;-78
2022/09/04 02:40:34;;;;;;;;;;;;;;;8.18;68.58;100479.00;4996985;28;19944;-79
2022/09/04 02:43:20;;;;;;;;;;;;;;;8.16;68.73;100484.16;4997009;28;19930;-80
2022/09/04 02:45:47;;;;;;;;;;;;;;;8.14;68.68;100482.38;4996831;28;19925;-80
2022/09/04 02:48:25;;;;;;;;;;;;;;;8.10;68.74;100483.13;4996378;28;20020;-79
2022/09/04 02:51:12;;;;;;;;;;;;;;;8.10;68.78;100488.34;4980282;28;19926;-79
2022/09/04 02:53:51;;;;;;;;;;;;;;;8.11;68.72;100490.97;4996605;28;19926;-79
2022/09/04 02:56:31;;;;;;;;;;;;;;;8.14;68.86;100490.16;4996400;28;20461;-75
2022/09/04 02:59:07;;;;;;;;;;;;;;;8.12;68.68;100494.47;4978358;28;19959;-77
2022/09/04 03:01:38;;;;;;;;;;;;;;;8.07;68.89;100502.16;4977188;28;19975;-80
2022/09/04 03:04:15;;;;;;;;;;;;;;;8.06;68.96;100507.31;4959634;28;20379;-77
2022/09/04 03:07:05;;;;;;;;;;;;;;;8.04;68.96;100504.66;4977320;28;20333;-80
2022/09/04 03:09:37;;;;;;;;;;;;;;;8.08;68.90;100501.31;4976928;28;19926;-77
2022/09/04 03:12:25;;;;;;;;;;;;;;;8.13;68.99;100499.72;4977313;28;19933;-78
2022/09/04 03:15:00;;;;;;;;;;;;;;;8.20;68.98;100495.53;4977415;28;19925;-79
2022/09/04 03:17:36;;;;;;;;;;;;;;;8.27;68.44;100500.00;4976805;28;20398;-76
2022/09/04 03:20:16;;;;;;;;;;;;;;;8.38;68.65;100501.13;4976975;28;19926;-77
2022/09/04 03:22:43;;;;;;;;;;;;;;;8.53;67.88;100499.75;4982130;28;19926;-77
2022/09/04 03:25:29;;;;;;;;;;;;;;;8.68;67.64;100501.81;4983835;28;20364;-75
2022/09/04 03:27:56;;;;;;;;;;;;;;;8.83;67.41;100504.72;4978892;28;20028;-77
2022/09/04 03:30:24;;;;;;;;;;;;;;;8.95;66.87;100505.00;4991993;28;19932;-76
2022/09/04 03:32:57;;;;;;;;;;;;;;;9.02;67.16;100499.03;4980802;28;19930;-77
2022/09/04 03:35:36;;;;;;;;;;;;;;;9.09;67.07;100502.63;4980480;28;19948;-78
2022/09/04 03:38:19;;;;;;;;;;;;;;;9.17;67.35;100498.47;4979792;28;20436;-78
2022/09/04 03:41:05;;;;;;;;;;;;;;;9.25;66.46;100493.41;4996306;28;20028;-79
2022/09/04 03:43:45;;;;;;;;;;;;;;;9.39;66.79;100499.72;4994904;28;19965;-78
2022/09/04 03:46:15;;;;;;;;;;;;;;;9.59;66.52;100502.72;4977699;28;19961;-76
2022/09/04 03:48:57;;;;;;;;;;;;;;;9.86;65.67;100509.25;4982701;28;19937;-77
2022/09/04 03:51:33;;;;;;;;;;;;;;;10.16;65.36;100494.94;4994504;28;20306;-77
2022/09/04 03:54:11;;;;;;;;;;;;;;;10.52;65.15;100509.38;4989560;28;20358;-75
2022/09/04 03:57:04;;;;;;;;;;;;;;;10.69;64.54;100496.56;4995860;28;19976;-78
2022/09/04 03:59:40;;;;;;;;;;;;;;;10.88;63.89;100503.78;4992281;28;19930;-75
2022/09/04 04:02:30;;;;;;;;;;;;;;;11.04;63.53;100502.25;4995424;28;19925;-80
2022/09/04 04:05:16;;;;;;;;;;;;;;;11.22;63.21;100496.31;4988406;28;19961;-78
2022/09/04 04:08:02;;;;;;;;;;;;;;;11.43;62.98;100499.16;4995783;28;20021;-76
2022/09/04 04:10:32;;;;;;;;;;;;;;;11.61;62.49;100497.59;4995429;28;19929;-77
2022/09/04 04:13:23;;;;;;;;;;;;;;;11.76;62.32;100497.72;4994026;28;19977;-77
2022/09/04 04:16:09;;;;;;;;;;;;;;;11.89;61.90;100493.50;4968499;28;19937;-78
2022/09/04 04:18:43;;;;;;;;;;;;;;;12.00;61.50;100481.38;4976355;28;19933;-79
2022/09/04 04:21:21;;;;;;;;;;;;;;;12.04;61.32;100483.13;4984402;28;19934;-77
2022/09/04 04:23:57;;;;;;;;;;;;;;;12.18;61.31;100491.09;4993523;28;19926;-77
2022/09/04 04:26:39;;;;;;;;;;;;;;;12.35;60.95;100479.88;4994730;28;19997;-77
2022/09/04 04:29:38;;;;;;;;;;;;;;;12.50;60.75;100478.19;4985942;28;20402;-76
2022/09/04 04:32:14;;;;;;;;;;;;;;;12.62;60.49;100484.38;4976522;28;19941;-78
2022/09/04 04:35:01;;;;;;;;;;;;;;;12.71;60.13;100473.91;4978516;28;19929;-75
2022/09/04 04:37:32;;;;;;;;;;;;;;;12.86;59.46;100476.63;4992964;28;20413;-76
2022/09/04 04:40:09;;;;;;;;;;;;;;;12.80;59.44;100487.09;4982948;28;19932;-77
2022/09/04 04:42:55;;;;;;;;;;;;;;;12.78;59.23;100483.56;4984067;28;19968;-78
2022/09/04 04:48:31;;;;;;;;;;;;;;;12.83;58.01;100480.97;4995234;28;20040;-81
2022/09/04 04:51:03;;;;;;;;;;;;;;;12.90;57.96;100485.34;4994698;28;19925;-76
2022/09/04 04:54:06;;;;;;;;;;;;;;;12.95;57.32;100481.03;4983970;28;20314;-78
2022/09/04 04:56:54;;;;;;;;;;;;;;;13.00;56.67;100481.03;4904810;29;19935;-77
2022/09/04 04:59:39;;;;;;;;;;;;;;;12.98;56.61;100485.41;4977551;28;19937;-78
2022/09/04 05:02:20;;;;;;;;;;;;;;;13.07;56.31;100486.28;4982716;28;19933;-78
2022/09/04 05:05:02;;;;;;;;;;;;;;;13.18;55.68;100480.19;4985138;28;19932;-77
2022/09/04 05:07:44;;;;;;;;;;;;;;;13.13;55.56;100479.31;4982091;28;20354;-77
2022/09/04 05:10:18;;;;;;;;;;;;;;;13.29;55.59;100482.03;4985502;28;19931;-77
2022/09/04 05:12:51;;;;;;;;;;;;;;;13.54;55.22;100482.06;4986296;28;19968;-77
2022/09/04 05:15:21;;;;;;;;;;;;;;;13.74;54.87;100482.06;4994310;28;19925;-77
2022/09/04 05:17:52;;;;;;;;;;;;;;;13.76;53.98;100477.69;4980012;28;19926;-77
2022/09/04 05:20:22;;;;;;;;;;;;;;;13.77;54.23;100483.84;4974519;28;20017;-77
2022/09/04 05:23:09;;;;;;;;;;;;;;;13.81;53.77;100481.22;4974484;28;19933;-77
2022/09/04 05:25:42;;;;;;;;;;;;;;;13.93;53.81;100485.56;4925618;28;19930;-76
2022/09/04 05:28:19;;;;;;;;;;;;;;;13.98;53.27;100489.09;4974584;28;19973;-76
2022/09/04 05:30:49;;;;;;;;;;;;;;;13.96;53.15;100488.22;4974660;28;19952;-77
2022/09/04 05:33:28;;;;;;;;;;;;;;;13.95;52.95;100490.81;4974008;28;19953;-76
2022/09/04 05:36:14;;;;;;;;;;;;;;;13.86;53.13;100489.94;4973115;28;20294;-78
2022/09/04 05:39:07;;;;;;;;;;;;;;;13.85;52.80;100495.19;4978274;28;20310;-77
2022/09/04 05:41:59;;;;;;;;;;;;;;;13.90;52.86;100493.47;4984377;28;20308;-77
2022/09/04 05:44:44;;;;;;;;;;;;;;;14.00;52.95;100496.94;4955724;28;19926;-77
2022/09/04 05:47:17;;;;;;;;;;;;;;;14.11;52.60;100497.78;4978298;28;19929;-77
2022/09/04 05:49:44;;;;;;;;;;;;;;;14.09;52.43;100496.97;4981879;28;19926;-78
2022/09/04 05:52:30;;;;;;;;;;;;;;;13.96;52.37;100498.72;4979001;28;19930;-80
2022/09/04 05:55:09;;;;;;;;;;;;;;;13.98;52.23;100494.34;4983721;28;19933;-80
2022/09/04 05:57:55;;;;;;;;;;;;;;;14.00;52.37;100497.81;4983120;28;19925;-79
2022/09/04 06:00:22;;;;;;;;;;;;;;;14.07;52.30;100489.06;4983904;28;19926;-80
2022/09/04 06:03:08;;;;;;;;;;;;;;;14.11;51.99;100488.19;4967797;28;20297;-81
2022/09/04 06:05:43;;;;;;;;;;;;;;;14.16;51.98;100492.56;4979542;28;19925;-79
2022/09/04 06:08:33;;;;;;;;;;;;;;;14.10;52.08;100496.06;4993831;28;19964;-81
2022/09/04 06:11:01;;;;;;;;;;;;;;;14.07;51.81;100494.31;4963106;28;19961;-79
2022/09/04 06:13:40;;;;;;;;;;;;;;;14.12;51.20;100483.81;4992743;28;19925;-84
2022/09/04 06:16:09;;;;;;;;;;;;;;;14.11;51.10;100497.78;4990180;28;19968;-83
2022/09/04 06:18:39;;;;;;;;;;;;;;;14.20;50.82;100496.94;4979642;28;20309;-81
2022/09/04 06:21:10;;;;;;;;;;;;;;;14.28;50.97;100506.56;4979050;28;19926;-78
2022/09/04 06:23:37;;;;;;;;;;;;;;;14.32;50.25;100505.66;4972844;28;19926;-80
2022/09/04 06:26:03;;;;;;;;;;;;;;;14.30;49.94;100507.44;4976814;28;19941;-80
2022/09/04 06:28:39;;;;;;;;;;;;;;;14.41;50.03;100507.41;4983041;28;19930;-80
2022/09/04 06:31:06;;;;;;;;;;;;;;;14.51;49.42;100501.25;4993424;28;19961;-77
2022/09/04 06:33:41;;;;;;;;;;;;;;;14.62;48.98;100501.25;4992599;28;19926;-79
2022/09/04 06:36:24;;;;;;;;;;;;;;;14.74;48.76;100510.84;4984969;28;19930;-80
2022/09/04 06:38:54;;;;;;;;;;;;;;;14.63;48.12;100505.63;4978477;28;19936;-78
2022/09/04 06:41:42;;;;;;;;;;;;;;;14.65;47.94;100508.28;4992883;28;20829;-81
2022/09/04 06:44:17;;;;;;;;;;;;;;;14.72;47.97;100510.00;4976300;28;20311;-79
2022/09/04 06:46:50;;;;;;;;;;;;;;;14.95;47.47;100504.66;4976007;28;20028;-83
2022/09/04 06:49:22;;;;;;;;;;;;;;;15.19;46.64;100514.19;4974313;28;19957;-84
2022/09/04 06:52:20;;;;;;;;;;;;;;;15.19;45.83;100508.91;4973558;28;20346;-83
2022/09/04 06:54:52;;;;;;;;;;;;;;;15.19;45.53;100506.28;4886987;28;20018;-79
2022/09/04 06:57:38;;;;;;;;;;;;;;;15.30;45.95;100501.81;4972847;28;19926;-83
2022/09/04 07:00:08;;;;;;;;;;;;;;;15.43;45.93;100507.03;4972598;28;19926;-80
2022/09/04 07:02:45;;;;;;;;;;;;;;;15.74;45.62;100502.44;4974335;28;19925;-81
2022/09/04 07:05:12;;;;;;;;;;;;;;;16.20;44.96;100498.53;4984924;28;20040;-79
2022/09/04 07:07:39;;;;;;;;;;;;;;;16.53;43.87;100495.56;4994257;28;19925;-80
2022/09/04 07:10:11;;;;;;;;;;;;;;;16.45;42.82;100493.88;4992612;28;19929;-80
2022/09/04 07:12:44;;;;;;;;;;;;;;;16.43;43.48;100496.53;4995905;28;19929;-80
2022/09/04 07:15:31;;;;;;;;;;;;;;;16.77;43.26;100491.75;4995751;28;19926;-77
2022/09/04 07:18:17;;;;;;;;;;;;;;;17.26;42.32;100486.78;4983207;28;19925;-80
2022/09/04 07:21:03;;;;;;;;;;;;;;;17.15;42.01;100481.66;4995714;28;19932;-83
2022/09/04 07:23:49;;;;;;;;;;;;;;;16.82;42.05;100483.84;4996034;28;19926;-80
2022/09/04 07:26:39;;;;;;;;;;;;;;;16.70;41.95;100491.84;4996376;28;20394;-81
2022/09/04 07:29:21;;;;;;;;;;;;;;;16.64;41.35;100489.28;4973364;28;19933;-80
2022/09/04 07:32:09;;;;;;;;;;;;;;;16.74;41.78;100480.38;5002394;28;19925;-80
2022/09/04 07:34:49;;;;;;;;;;;;;;;17.15;40.50;100471.09;4989049;28;19949;-81
2022/09/04 07:37:38;;;;;;;;;;;;;;;17.23;39.38;100469.22;4984638;28;19926;-82
2022/09/04 07:40:08;;;;;;;;;;;;;;;17.11;39.59;100474.66;4983368;28;20024;-80
2022/09/04 07:43:02;;;;;;;;;;;;;;;17.23;40.20;100474.50;4993749;28;19934;-80
2022/09/04 07:45:53;;;;;;;;;;;;;;;17.38;39.33;100466.34;4904658;29;20514;-79
2022/09/04 07:48:33;;;;;;;;;;;;;;;17.13;39.49;100463.19;4985842;28;20016;-81
2022/09/04 07:51:06;;;;;;;;;;;;;;;16.96;40.04;100460.75;4969366;28;19925;-82
2022/09/04 07:53:38;;;;;;;;;;;;;;;16.68;40.43;100460.22;4986531;28;19926;-78
2022/09/04 07:56:14;;;;;;;;;;;;;;;16.41;40.27;100453.50;4983497;28;20029;-80
2022/09/04 07:58:43;;;;;;;;;;;;;;;16.47;40.66;100450.78;4982393;28;19926;-80
2022/09/04 08:01:28;;;;;;;;;;;;;;;16.58;40.34;100448.91;4983165;28;19933;-79
2022/09/04 08:03:58;;;;;;;;;;;;;;;16.58;40.01;100441.00;4983254;28;19926;-78
2022/09/04 08:06:37;;;;;;;;;;;;;;;16.58;39.85;100451.56;4985609;28;19932;-80
2022/09/04 08:09:27;;;;;;;;;;;;;;;16.57;39.47;100438.38;4979350;28;20309;-80
2022/09/04 08:12:13;;;;;;;;;;;;;;;17.02;39.01;100430.78;4959117;28;19976;-80
2022/09/04 08:14:59;;;;;;;;;;;;;;;17.32;37.84;100433.88;4975592;28;19926;-80
2022/09/04 08:17:41;;;;;;;;;;;;;;;17.38;36.47;100437.31;4994166;28;19925;-81
2022/09/04 08:20:15;;;;;;;;;;;;;;;17.14;37.16;100429.72;4991097;28;20306;-79
2022/09/04 08:23:04;;;;;;;;;;;;;;;17.16;37.00;100433.22;4988657;28;20441;-79
2022/09/04 08:25:51;;;;;;;;;;;;;;;17.25;36.08;100426.94;4958636;28;19926;-81
2022/09/04 08:28:19;;;;;;;;;;;;;;;17.21;36.06;100423.47;4962960;28;19926;-79
2022/09/04 08:30:53;;;;;;;;;;;;;;;17.02;35.35;100428.16;4977791;28;19926;-77
2022/09/04 08:33:44;;;;;;;;;;;;;;;16.59;36.54;100434.81;4965909;28;19926;-78
2022/09/04 08:36:21;;;;;;;;;;;;;;;16.54;37.33;100422.56;4954968;28;19983;-79
2022/09/04 08:38:54;;;;;;;;;;;;;;;16.61;37.28;100410.22;4984665;28;19984;-79
2022/09/04 08:41:40;;;;;;;;;;;;;;;16.65;37.43;100411.91;4983653;28;19926;-80
2022/09/04 08:44:16;;;;;;;;;;;;;;;16.44;37.19;100413.91;4984709;28;19926;-78
2022/09/04 08:47:02;;;;;;;;;;;;;;;16.07;37.65;100410.84;4986966;28;19925;-79
2022/09/04 08:49:47;;;;;;;;;;;;;;;15.94;37.42;100415.34;4993758;28;19926;-80
2022/09/04 08:55:22;;;;;;;;;;;;;;;16.26;36.21;100395.66;4992993;28;20028;-80
2022/09/04 08:57:52;;;;;;;;;;;;;;;15.96;36.91;100409.19;4995437;28;19932;-81
2022/09/04 09:00:20;;;;;;;;;;;;;;;15.87;37.39;100411.00;4994717;28;19925;-79
2022/09/04 09:03:16;;;;;;;;;;;;;;;15.87;37.49;100409.25;4977753;28;20275;-79
2022/09/04 09:05:55;;;;;;;;;;;;;;;16.38;36.85;100411.34;4964357;28;19961;-79
2022/09/04 09:08:48;;;;;;;;;;;;;;;16.91;36.37;100403.69;4974327;28;19934;-79
2022/09/04 09:11:32;;;;;;;;;;;;;;;17.18;35.54;100390.06;4976176;28;19928;-79
2022/09/04 09:14:11;;;;;;;;;;;;;;;16.97;35.61;100398.28;4958548;28;20017;-79
2022/09/04 09:17:08;;;;;;;;;;;;;;;17.34;35.54;100392.50;4974940;28;19933;-79
2022/09/04 09:19:38;;;;;;;;;;;;;;;17.84;35.14;100379.34;4942842;28;19926;-78
2022/09/04 09:22:15;;;;;;;;;;;;;;;18.09;34.73;100388.56;4975840;28;19969;-79
2022/09/04 09:24:45;;;;;;;;;;;;;;;18.30;34.58;100389.03;4958310;28;19972;-79
2022/09/04 09:27:21;;;;;;;;;;;;;;;18.16;34.76;100389.31;4974797;28;19930;-78
2022/09/04 09:29:51;;;;;;;;;;;;;;;17.78;35.03;100388.22;4975667;28;20398;-79
2022/09/04 09:32:37;;;;;;;;;;;;;;;17.04;35.58;100397.34;4975886;28;20382;-80
2022/09/04 09:35:07;;;;;;;;;;;;;;;16.63;36.08;100405.75;4977287;28;19948;-80
2022/09/04 09:37:52;;;;;;;;;;;;;;;16.37;35.89;100399.94;4993798;28;19925;-79
2022/09/04 09:40:30;;;;;;;;;;;;;;;15.98;36.60;100398.59;4995028;28;20385;-78
2022/09/04 09:43:03;;;;;;;;;;;;;;;15.93;37.23;100398.66;4975613;28;19926;-79
2022/09/04 09:45:34;;;;;;;;;;;;;;;16.12;37.01;100393.19;4976858;28;19976;-79
2022/09/04 09:48:04;;;;;;;;;;;;;;;16.47;36.56;100402.47;4992884;28;19926;-80
2022/09/04 09:50:47;;;;;;;;;;;;;;;17.04;35.72;100394.69;4982195;28;19926;-81
2022/09/04 09:53:32;;;;;;;;;;;;;;;17.26;35.19;100397.88;4975085;28;19926;-79
2022/09/04 09:56:15;;;;;;;;;;;;;;;17.42;35.05;100389.69;4974662;28;19941;-79
2022/09/04 09:58:46;;;;;;;;;;;;;;;17.22;34.32;100398.81;4974491;28;19950;-81
2022/09/04 10:01:25;;;;;;;;;;;;;;;16.74;34.43;100386.28;4974406;28;20326;-80
2022/09/04 10:04:10;;;;;;;;;;;;;;;16.29;34.73;100385.97;4974787;28;19933;-80
2022/09/04 10:06:40;;;;;;;;;;;;;;;16.43;34.58;100393.69;4974207;28;19925;-80
2022/09/04 10:09:13;;;;;;;;;;;;;;;16.79;34.30;100387.09;4941419;28;20029;-80
2022/09/04 10:11:43;;;;;;;;;;;;;;;16.95;33.07;100387.78;4974026;28;19926;-78
2022/09/04 10:14:28;;;;;;;;;;;;;;;17.14;33.42;100382.22;4973926;28;19933;-79
2022/09/04 10:17:02;;;;;;;;;;;;;;;17.25;33.23;100379.41;4974365;28;20309;-79
2022/09/04 10:19:47;;;;;;;;;;;;;;;17.09;33.57;100392.84;4956622;28;20287;-78
2022/09/04 10:22:15;;;;;;;;;;;;;;;16.78;34.13;100390.63;4972516;28;19926;-79
2022/09/04 10:24:58;;;;;;;;;;;;;;;16.61;34.33;100397.91;4974005;28;19926;-81
2022/09/04 10:27:37;;;;;;;;;;;;;;;16.40;34.44;100385.84;4974582;28;19961;-79
2022/09/04 10:30:20;;;;;;;;;;;;;;;16.17;35.08;100387.00;4957233;28;19977;-79
2022/09/04 10:33:17;;;;;;;;;;;;;;;16.47;34.58;100379.59;4974149;28;19930;-80
2022/09/04 10:36:03;;;;;;;;;;;;;;;16.61;34.56;100378.56;4889564;28;19928;-82
2022/09/04 10:38:30;;;;;;;;;;;;;;;16.89;34.49;100373.81;4941624;28;19932;-80
2022/09/04 10:41:00;;;;;;;;;;;;;;;16.79;33.99;100375.66;4978353;28;19926;-80
2022/09/04 10:43:27;;;;;;;;;;;;;;;16.33;34.08;100365.72;4976549;28;19969;-79
2022/09/04 10:45:54;;;;;;;;;;;;;;;16.15;34.56;100375.59;4976552;28;19955;-81
2022/09/04 10:48:27;;;;;;;;;;;;;;;16.23;34.82;100375.50;4960903;28;19925;-80
2022/09/04 10:51:14;;;;;;;;;;;;;;;16.37;34.59;100370.94;4978114;28;19932;-80
2022/09/04 10:53:55;;;;;;;;;;;;;;;16.56;34.31;100368.94;4977834;28;20291;-78
2022/09/04 10:56:34;;;;;;;;;;;;;;;16.49;34.09;100369.91;4993219;28;19926;-79
2022/09/04 10:59:02;;;;;;;;;;;;;;;16.30;34.43;100363.97;4979755;28;19932;-80
2022/09/04 11:01:50;;;;;;;;;;;;;;;16.38;34.43;100370.03;4997300;28;19973;-79
2022/09/04 11:04:36;;;;;;;;;;;;;;;16.81;34.19;100355.44;4979365;28;19925;-81
2022/09/04 11:07:12;;;;;;;;;;;;;;;17.39;33.59;100349.25;4997185;28;19968;-80
2022/09/04 11:09:57;;;;;;;;;;;;;;;17.91;33.01;100350.09;4996763;28;19925;-79
2022/09/04 11:12:37;;;;;;;;;;;;;;;18.32;32.71;100347.56;4994636;28;20028;-80
2022/09/04 11:15:11;;;;;;;;;;;;;;;18.48;32.22;100338.41;4977756;28;19929;-80
2022/09/04 11:17:38;;;;;;;;;;;;;;;18.16;32.34;100349.66;4977514;28;19969;-79
2022/09/04 11:20:11;;;;;;;;;;;;;;;17.86;32.77;100348.47;4977513;28;19932;-78
2022/09/04 11:22:44;;;;;;;;;;;;;;;17.38;33.27;100344.00;4977351;28;19937;-80
2022/09/04 11:25:11;;;;;;;;;;;;;;;17.03;34.02;100345.44;4977578;28;19926;-79
2022/09/04 11:27:43;;;;;;;;;;;;;;;16.91;34.22;100346.50;4977082;28;19926;-79
2022/09/04 11:30:19;;;;;;;;;;;;;;;16.59;34.22;100352.22;4976067;28;19976;-77
2022/09/04 11:33:07;;;;;;;;;;;;;;;16.40;34.42;100338.38;4977194;28;19926;-80
2022/09/04 11:35:53;;;;;;;;;;;;;;;16.35;34.32;100337.59;4977426;28;20401;-79
2022/09/04 11:38:42;;;;;;;;;;;;;;;16.39;34.33;100339.28;4976232;28;19926;-80
2022/09/04 11:41:27;;;;;;;;;;;;;;;16.30;34.15;100347.28;4987059;28;19949;-78
2022/09/04 11:44:13;;;;;;;;;;;;;;;16.32;34.12;100342.88;4963375;28;19932;-79
2022/09/04 11:47:02;;;;;;;;;;;;;;;16.50;33.79;100347.94;4976043;28;19954;-80
2022/09/04 11:50:05;;;;;;;;;;;;;;;16.56;33.03;100350.50;4975754;28;19926;-79
2022/09/04 11:52:36;;;;;;;;;;;;;;;16.50;32.78;100350.56;4898072;29;20312;-80
2022/09/04 11:58:52;;;;;;;;;;;;;;;16.68;32.40;100344.16;4976581;28;19929;-81
2022/09/04 12:01:25;;;;;;;;;;;;;;;16.82;32.73;100344.00;4976407;28;19980;-80
2022/09/04 12:03:52;;;;;;;;;;;;;;;16.99;32.36;100335.81;4976453;28;19940;-81
2022/09/04 12:06:33;;;;;;;;;;;;;;;16.96;32.46;100339.38;4976335;28;20398;-80
2022/09/04 12:09:01;;;;;;;;;;;;;;;17.07;32.38;100338.34;4976452;28;19926;-80
2022/09/04 12:11:46;;;;;;;;;;;;;;;17.02;32.38;100329.66;4976445;28;19938;-80
2022/09/04 12:14:20;;;;;;;;;;;;;;;16.93;32.30;100331.53;4963485;28;19926;-79
2022/09/04 12:17:07;;;;;;;;;;;;;;;16.96;32.38;100320.03;4976587;28;19958;-79
2022/09/04 12:19:57;;;;;;;;;;;;;;;17.35;32.19;100318.50;4974838;28;19926;-80
2022/09/04 12:22:50;;;;;;;;;;;;;;;17.56;31.46;100311.97;4946729;28;19930;-80
2022/09/04 12:25:36;;;;;;;;;;;;;;;17.72;30.83;100312.56;4976675;28;19933;-80
2022/09/04 12:28:21;;;;;;;;;;;;;;;17.75;30.76;100316.94;4977351;28;19932;-79
2022/09/04 12:30:54;;;;;;;;;;;;;;;17.56;30.82;100311.97;4961084;28;19976;-79
2022/09/04 12:33:24;;;;;;;;;;;;;;;17.64;31.08;100309.22;4980118;28;19926;-79
2022/09/04 12:36:13;;;;;;;;;;;;;;;17.89;30.98;100309.63;4978073;28;20410;-79
2022/09/04 12:38:46;;;;;;;;;;;;;;;17.84;31.13;100310.63;4976329;28;20402;-81
2022/09/04 12:41:25;;;;;;;;;;;;;;;17.39;30.43;100314.06;4958666;28;19955;-79
2022/09/04 12:44:07;;;;;;;;;;;;;;;16.87;31.05;100305.22;4976164;28;20021;-79
2022/09/04 12:46:59;;;;;;;;;;;;;;;16.70;31.67;100317.78;4975676;28;19930;-80
2022/09/04 12:49:29;;;;;;;;;;;;;;;16.60;31.57;100317.00;4975676;28;19926;-79
2022/09/04 12:52:22;;;;;;;;;;;;;;;16.42;31.89;100317.28;4975549;28;19949;-79
2022/09/04 12:55:08;;;;;;;;;;;;;;;16.47;31.90;100323.34;4936921;28;20017;-80
2022/09/04 12:57:51;;;;;;;;;;;;;;;16.72;31.51;100313.34;4974713;28;19926;-80
2022/09/04 13:00:18;;;;;;;;;;;;;;;16.77;31.25;100303.59;4975103;28;19926;-80
2022/09/04 13:03:04;;;;;;;;;;;;;;;16.86;31.41;100298.19;4974654;28;20020;-78
2022/09/04 13:05:48;;;;;;;;;;;;;;;16.92;30.96;100290.19;4975868;28;19926;-79
2022/09/04 13:08:35;;;;;;;;;;;;;;;16.75;31.18;100298.31;4957619;28;19980;-77
2022/09/04 13:11:12;;;;;;;;;;;;;;;16.57;31.16;100307.38;4974052;28;19976;-80
2022/09/04 13:13:58;;;;;;;;;;;;;;;16.26;31.58;100300.78;4975129;28;19926;-80
2022/09/04 13:16:29;;;;;;;;;;;;;;;16.06;32.28;100312.44;4974755;28;19926;-78
2022/09/04 13:19:21;;;;;;;;;;;;;;;16.00;32.33;100304.59;4980804;28;19965;-80
2022/09/04 13:21:55;;;;;;;;;;;;;;;15.86;32.50;100306.53;4994116;28;20017;-78
2022/09/04 13:24:26;;;;;;;;;;;;;;;15.73;32.66;100305.81;4976952;28;19930;-78
2022/09/04 13:27:14;;;;;;;;;;;;;;;15.71;32.83;100303.19;4958504;28;20048;-79
2022/09/04 13:29:41;;;;;;;;;;;;;;;15.67;32.93;100304.06;4986720;28;19940;-79
2022/09/04 13:32:27;;;;;;;;;;;;;;;15.65;33.23;100308.47;4994693;28;19933;-79
2022/09/04 13:35:16;;;;;;;;;;;;;;;15.67;33.45;100300.56;5001801;28;19930;-79
2022/09/04 13:37:55;;;;;;;;;;;;;;;15.83;33.43;100296.91;5002793;28;19941;-78
2022/09/04 13:40:22;;;;;;;;;;;;;;;15.98;33.24;100301.13;4994624;28;20029;-78
2022/09/04 13:42:53;;;;;;;;;;;;;;;15.97;33.09;100294.13;4993488;28;19926;-79
2022/09/04 13:45:22;;;;;;;;;;;;;;;15.93;32.87;100289.78;4974677;28;19929;-78